createdAt,value
2019-04-30T00:02:09.624Z,20.72
2019-04-30T00:06:57.848Z,20.86
2019-04-30T00:12:17.922Z,22.87
2019-04-30T00:17:06.388Z,25.32
2019-04-30T00:32:21.246Z,26.02
2019-04-30T00:37:30.513Z,25.44
2019-04-30T00:42:38.258Z,27.38
2019-04-30T00:47:47.942Z,25.37
2019-04-30T00:53:12.407Z,26.14
2019-04-30T00:58:07.019Z,27.65
2019-04-30T01:08:08.540Z,27.87
2019-04-30T01:12:59.854Z,29.16
2019-04-30T01:18:16.917Z,29.15
2019-04-30T01:23:09.829Z,29.45
2019-04-30T01:28:16.181Z,30.57
2019-04-30T01:33:34.695Z,33.05
2019-04-30T01:38:32.446Z,34.72
2019-04-30T01:43:23.191Z,33.85
2019-04-30T01:48:43.635Z,38.83
2019-04-30T01:53:28.566Z,36.78
2019-04-30T01:58:34.981Z,36.25
2019-04-30T02:03:43.277Z,40.21
2019-04-30T02:09:04.336Z,34.19
2019-04-30T02:14:05.316Z,37.27
2019-04-30T02:18:53.673Z,38.41
2019-04-30T02:24:13.819Z,41.05
2019-04-30T02:29:14.930Z,39.28
2019-04-30T02:34:15.272Z,45.25
2019-04-30T02:39:02.852Z,44.40
2019-04-30T02:44:10.587Z,38.52
2019-04-30T02:49:20.156Z,35.83
2019-04-30T02:59:30.194Z,43.11
2019-04-30T03:04:50.279Z,38.67
2019-04-30T03:09:50.108Z,44.06
2019-04-30T03:14:51.261Z,44.49
2019-04-30T03:19:40.315Z,41.38
2019-04-30T03:24:49.834Z,41.25
2019-04-30T03:29:54.177Z,45.05
2019-04-30T03:35:15.525Z,46.11
2019-04-30T03:40:02.745Z,48.83
2019-04-30T03:45:24.460Z,40.22
2019-04-30T03:50:32.824Z,44.91
2019-04-30T03:55:29.905Z,46.94
2019-04-30T04:00:30.015Z,42.08
2019-04-30T04:05:16.060Z,45.50
2019-04-30T04:10:23.427Z,44.41
2019-04-30T04:15:43.837Z,50.76
2019-04-30T04:20:30.977Z,46.27
2019-04-30T04:25:52.389Z,39.93
2019-04-30T04:30:42.863Z,44.83
2019-04-30T04:35:49.916Z,42.42
2019-04-30T04:40:56.056Z,46.91
2019-04-30T04:46:04.448Z,39.36
2019-04-30T04:51:34.505Z,44.09
2019-04-30T05:01:28.970Z,48.20
2019-04-30T05:06:16.324Z,47.26
2019-04-30T05:16:44.564Z,41.89
2019-04-30T05:21:44.948Z,41.72
2019-04-30T05:26:45.235Z,39.47
2019-04-30T05:31:33.328Z,41.10
2019-04-30T05:36:54.766Z,41.80
2019-04-30T05:41:54.973Z,38.21
2019-04-30T05:46:42.447Z,44.62
2019-04-30T05:52:04.488Z,42.55
2019-04-30T06:01:59.078Z,41.76
2019-04-30T06:07:18.887Z,36.39
2019-04-30T06:12:18.788Z,41.98
2019-04-30T06:17:19.586Z,41.31
2019-04-30T06:22:07.821Z,42.82
2019-04-30T06:32:20.778Z,39.31
2019-04-30T06:37:19.447Z,36.15
2019-04-30T06:47:33.510Z,35.90
2019-04-30T06:52:53.970Z,36.33
2019-04-30T06:57:53.206Z,37.77
2019-04-30T07:02:53.284Z,36.80
2019-04-30T07:18:01.413Z,34.14
2019-04-30T07:23:21.401Z,32.81
2019-04-30T07:28:09.855Z,32.30
2019-04-30T07:33:31.137Z,30.54
2019-04-30T07:38:35.780Z,31.81
2019-04-30T07:48:26.660Z,29.52
2019-04-30T07:53:46.518Z,32.34
2019-04-30T07:58:50.376Z,29.98
2019-04-30T08:03:35.527Z,28.92
2019-04-30T08:13:47.279Z,29.90
2019-04-30T08:18:54.078Z,28.09
2019-04-30T08:24:15.113Z,26.12
2019-04-30T08:29:02.463Z,25.58
2019-04-30T08:34:22.725Z,25.29
2019-04-30T08:44:23.821Z,24.18
2019-04-30T08:49:14.477Z,24.01
2019-04-30T08:54:34.714Z,24.43
2019-04-30T09:04:40.037Z,22.85
2019-04-30T09:14:29.744Z,20.96
2019-04-30T09:19:38.569Z,20.82
2019-04-30T09:30:04.404Z,21.05
2019-04-30T09:35:06.492Z,21.54
2019-04-30T09:39:54.868Z,19.89
2019-04-30T09:45:16.104Z,18.69
2019-04-30T09:50:03.423Z,19.41
2019-04-30T09:55:24.595Z,18.53
2019-04-30T10:00:25.883Z,19.15
2019-04-30T10:05:29.064Z,19.09
2019-04-30T10:10:14.377Z,17.75
2019-04-30T10:15:21.730Z,18.40
2019-04-30T10:20:29.093Z,18.03
2019-04-30T10:25:49.390Z,17.70
2019-04-30T10:30:36.792Z,17.74
2019-04-30T10:35:56.878Z,16.09
2019-04-30T10:40:45.159Z,15.48
2019-04-30T10:45:53.253Z,14.68
2019-04-30T10:51:14.685Z,13.71
2019-04-30T10:56:01.797Z,16.61
2019-04-30T11:06:19.064Z,15.30
2019-04-30T11:16:29.761Z,14.97
2019-04-30T11:21:37.682Z,15.29
2019-04-30T11:26:45.581Z,14.04
2019-04-30T11:32:05.462Z,13.48
2019-04-30T11:37:05.331Z,13.27
2019-04-30T11:42:06.892Z,11.66
2019-04-30T11:46:54.160Z,13.87
2019-04-30T11:52:15.495Z,12.78
2019-04-30T11:57:15.643Z,11.58
2019-04-30T12:02:15.794Z,11.43
2019-04-30T12:07:05.539Z,11.27
2019-04-30T12:12:18.803Z,11.19
2019-04-30T12:17:17.526Z,10.00
2019-04-30T12:22:04.948Z,10.18
2019-04-30T12:27:25.145Z,10.97
2019-04-30T12:32:25.405Z,10.47
2019-04-30T12:37:13.214Z,11.62
2019-04-30T12:42:21.712Z,12.42
2019-04-30T12:47:41.916Z,11.66
2019-04-30T12:52:42.197Z,12.32
2019-04-30T13:07:39.963Z,11.24
2019-04-30T13:12:58.208Z,11.30
2019-04-30T13:17:58.539Z,11.02
2019-04-30T13:22:45.527Z,10.02
2019-04-30T13:28:06.723Z,10.97
2019-04-30T13:33:07.067Z,10.95
2019-04-30T13:38:07.213Z,12.03
2019-04-30T13:42:54.487Z,11.54
2019-04-30T13:48:15.731Z,12.01
2019-04-30T13:53:16.075Z,11.72
2019-04-30T13:58:03.295Z,11.53
2019-04-30T14:03:24.391Z,11.20
2019-04-30T14:08:25.339Z,12.18
2019-04-30T14:13:14.113Z,12.25
2019-04-30T14:18:28.482Z,11.76
2019-04-30T14:23:41.683Z,11.59
2019-04-30T14:28:41.920Z,12.05
2019-04-30T14:33:42.971Z,10.74
2019-04-30T14:43:34.286Z,10.51
2019-04-30T14:48:54.792Z,11.56
2019-04-30T14:53:54.713Z,11.65
2019-04-30T15:04:00.117Z,10.43
2019-04-30T15:09:00.322Z,10.42
2019-04-30T15:13:49.295Z,10.63
2019-04-30T15:24:11.741Z,10.82
2019-04-30T15:29:00.253Z,10.72
2019-04-30T15:34:20.078Z,12.61
2019-04-30T15:39:21.132Z,12.22
2019-04-30T15:44:09.776Z,12.77
2019-04-30T15:49:30.083Z,13.26
2019-04-30T15:54:30.417Z,13.35
2019-04-30T15:59:18.969Z,13.32
2019-04-30T16:04:38.460Z,14.26
2019-04-30T16:09:38.488Z,14.07
2019-04-30T16:14:26.948Z,14.02
2019-04-30T16:19:47.443Z,14.36
2019-04-30T16:24:34.740Z,14.15
2019-04-30T16:29:54.819Z,15.21
2019-04-30T16:34:44.497Z,14.67
2019-04-30T16:44:55.816Z,14.56
2019-04-30T16:50:03.222Z,13.66
2019-04-30T16:55:11.580Z,13.83
2019-04-30T17:00:31.553Z,14.04
2019-04-30T17:05:22.152Z,14.09
2019-04-30T17:10:33.337Z,13.93
2019-04-30T17:15:33.616Z,12.84
2019-04-30T17:20:34.759Z,11.80
2019-04-30T17:25:23.243Z,11.52
2019-04-30T17:40:49.832Z,11.40
2019-04-30T17:45:39.156Z,10.15
2019-04-30T17:50:45.067Z,10.34
2019-04-30T17:56:05.645Z,9.76
2019-04-30T18:01:05.884Z,10.67
2019-04-30T18:06:06.326Z,9.97
2019-04-30T18:11:06.686Z,8.79
2019-04-30T18:15:55.859Z,8.55
2019-04-30T18:21:15.932Z,8.59
2019-04-30T18:26:17.518Z,8.68
2019-04-30T18:31:18.668Z,8.32
2019-04-30T18:41:21.615Z,8.14
2019-04-30T18:46:10.850Z,8.41
2019-04-30T18:51:32.892Z,8.46
2019-04-30T18:56:28.925Z,9.29
2019-04-30T19:01:37.232Z,9.37
2019-04-30T19:06:47.649Z,9.43
2019-04-30T19:11:34.889Z,9.43
2019-04-30T19:16:56.210Z,9.31
2019-04-30T19:26:48.668Z,9.72
2019-04-30T19:32:09.383Z,9.29
2019-04-30T19:36:55.124Z,9.02
2019-04-30T19:42:16.367Z,9.58
2019-04-30T19:47:03.673Z,9.44
2019-04-30T19:52:12.306Z,9.56
2019-04-30T19:57:19.784Z,10.31
2019-04-30T20:07:30.451Z,10.58
2019-04-30T20:12:40.849Z,11.33
2019-04-30T20:17:39.151Z,11.24
2019-04-30T20:22:46.369Z,10.88
2019-04-30T20:28:07.826Z,11.71
2019-04-30T20:32:55.391Z,10.63
2019-04-30T20:43:21.473Z,11.06
2019-04-30T20:48:21.719Z,11.68
2019-04-30T20:53:23.876Z,12.05
2019-04-30T20:58:13.344Z,13.05
2019-04-30T21:03:20.795Z,12.83
2019-04-30T21:08:28.221Z,13.21
2019-04-30T21:13:35.443Z,12.21
2019-04-30T21:18:55.811Z,12.24
2019-04-30T21:23:43.220Z,12.73
2019-04-30T21:29:11.066Z,13.38
2019-04-30T21:34:05.108Z,12.83
2019-04-30T21:39:06.457Z,13.60
2019-04-30T21:43:53.747Z,13.76
2019-04-30T21:49:14.928Z,13.99
2019-04-30T21:54:03.363Z,15.18
2019-04-30T21:59:23.786Z,16.72
2019-04-30T22:04:32.102Z,17.31
2019-04-30T22:09:19.648Z,18.51
2019-04-30T22:14:26.913Z,18.22
2019-04-30T22:19:35.138Z,19.20
2019-04-30T22:24:56.348Z,20.32
2019-04-30T22:29:57.809Z,20.69
2019-04-30T22:34:45.110Z,19.94
2019-04-30T22:40:05.246Z,21.97
2019-04-30T22:49:56.261Z,20.80
2019-04-30T22:55:04.602Z,21.97
2019-04-30T23:00:11.942Z,23.15
2019-04-30T23:05:32.983Z,22.93
2019-04-30T23:10:21.361Z,23.38
2019-04-30T23:15:41.601Z,22.81
2019-04-30T23:20:41.875Z,23.60
2019-04-30T23:25:30.376Z,26.06
2019-04-30T23:30:50.714Z,26.88
2019-04-30T23:35:50.780Z,26.69
2019-04-30T23:40:52.089Z,27.93
2019-04-30T23:45:52.316Z,27.94
2019-04-30T23:50:39.681Z,28.96
